Time;durP1;ratioP1;P1;durP2;ratioP2;P2;SDS_P1;SDS_P2;PMS_P1;PMS_P2;Temp;Humidity;BMP_temperature;BMP_pressure;BME280_temperature;BME280_humidity;BME280_pressure;Samples;Min_cycle;Max_cycle;Signal;HPM_P1;HPM_P2
2021/12/29 01:58:01;;;;;;;40.50;23.00;;;;;;;1.32;100.00;99994.03;2083098;24;20227;-81
2021/12/29 03:16:20;;;;;;;49.58;26.02;;;;;;;-0.38;100.00;99748.59;5759035;24;20057;-82
2021/12/29 04:54:27;;;;;;;53.40;27.95;;;;;;;-0.21;100.00;99795.28;5265691;24;20046;-82
2021/12/29 04:56:54;;;;;;;62.85;29.38;;;;;;;0.10;100.00;99845.06;4846515;29;20054;-82
2021/12/29 04:59:21;;;;;;;54.13;27.17;;;;;;;-0.14;100.00;99816.66;4848172;29;20010;-82
2021/12/29 05:01:48;;;;;;;55.17;28.58;;;;;;;1.00;100.00;99975.34;4849692;29;20088;-83
2021/12/29 05:12:01;;;;;;;56.42;27.70;;;;;;;-0.20;100.00;99794.31;5317052;24;20048;-82
2021/12/29 05:14:29;;;;;;;63.38;29.42;;;;;;;0.47;100.00;99895.94;5049111;24;20060;-83
2021/12/29 05:24:40;;;;;;;51.47;25.85;;;;;;;0.04;100.00;99851.00;4974892;24;20061;-81
2021/12/29 05:27:06;;;;;;;51.92;26.90;;;;;;;1.54;100.00;100082.78;4863424;29;20064;-82
2021/12/29 05:29:32;;;;;;;62.58;29.55;;;;;;;1.56;100.00;100083.47;5004038;24;20038;-79
2021/12/29 05:31:57;;;;;;;54.42;27.20;;;;;;;1.57;100.00;100092.25;4824512;29;20025;-80
2021/12/29 05:34:22;;;;;;;45.13;25.00;;;;;;;1.57;100.00;100095.72;4817344;29;20129;-80
2021/12/29 05:36:48;;;;;;;51.88;26.30;;;;;;;1.31;100.00;100063.94;4829825;24;20034;-81
2021/12/29 05:39:13;;;;;;;52.70;26.73;;;;;;;1.57;100.00;100097.53;4785045;29;20102;-82
2021/12/29 05:41:39;;;;;;;45.08;24.98;;;;;;;1.38;100.00;100072.09;4835183;29;20484;-81
2021/12/29 05:44:05;;;;;;;45.67;25.13;;;;;;;1.54;100.00;100089.91;4816446;29;20047;-82
2021/12/29 05:46:30;;;;;;;47.38;24.92;;;;;;;1.55;100.00;100073.81;4801793;29;20095;-80
2021/12/29 05:48:56;;;;;;;49.35;26.13;;;;;;;1.63;100.00;100079.19;4799456;29;20019;-81
2021/12/29 05:51:21;;;;;;;55.88;26.20;;;;;;;1.22;100.00;100038.38;4819242;29;20038;-81
2021/12/29 05:53:47;;;;;;;44.25;24.85;;;;;;;1.44;100.00;100068.81;4794826;29;20034;-79
2021/12/29 05:56:12;;;;;;;49.63;26.60;;;;;;;1.53;100.00;100085.59;4789625;29;20123;-78
2021/12/29 05:58:38;;;;;;;48.28;26.25;;;;;;;1.55;100.00;100091.56;4807924;29;20035;-78
2021/12/29 06:01:04;;;;;;;46.05;25.35;;;;;;;1.44;100.00;100073.28;4807966;29;20031;-79
2021/12/29 06:03:30;;;;;;;48.50;26.75;;;;;;;1.52;100.00;100081.25;4796512;29;20031;-80
2021/12/29 06:05:55;;;;;;;47.15;26.05;;;;;;;1.39;100.00;100073.75;4810142;29;20129;-79
2021/12/29 06:08:21;;;;;;;53.97;26.50;;;;;;;1.44;100.00;100086.53;4782718;29;20034;-80
2021/12/29 06:10:47;;;;;;;48.17;25.38;;;;;;;1.53;100.00;100104.97;4797222;29;20041;-80
2021/12/29 06:13:13;;;;;;;53.40;27.27;;;;;;;1.53;100.00;100106.81;4813908;29;20030;-78
2021/12/29 06:15:38;;;;;;;46.10;25.58;;;;;;;1.46;100.00;100101.31;4810408;29;20038;-78
2021/12/29 06:18:04;;;;;;;56.92;27.70;;;;;;;1.52;100.00;100113.09;4776632;29;20027;-80
2021/12/29 06:20:29;;;;;;;48.03;25.92;;;;;;;1.40;100.00;100086.03;4807091;29;20045;-79
2021/12/29 06:22:55;;;;;;;61.13;28.10;;;;;;;1.45;100.00;100107.56;4820785;29;20034;-79
2021/12/29 06:25:21;;;;;;;53.13;25.88;;;;;;;1.37;100.00;100100.41;4808581;29;20388;-78
2021/12/29 06:27:47;;;;;;;50.15;26.20;;;;;;;1.32;100.00;100089.44;4806189;29;20473;-79
2021/12/29 06:30:16;;;;;;;49.58;26.40;;;;;;;1.47;100.00;100116.22;4817368;29;20026;-80
2021/12/29 06:32:42;;;;;;;47.42;25.42;;;;;;;1.50;100.00;100109.78;4806875;29;20122;-79
2021/12/29 06:35:10;;;;;;;44.65;25.88;;;;;;;1.40;100.00;100100.09;4806507;29;20759;-78
2021/12/29 06:37:36;;;;;;;42.60;24.33;;;;;;;1.55;100.00;100118.06;4771285;29;20067;-78
2021/12/29 06:40:02;;;;;;;46.72;25.63;;;;;;;1.56;100.00;100119.75;4799310;29;20030;-78
2021/12/29 06:42:28;;;;;;;45.08;26.00;;;;;;;1.60;100.00;100121.91;4812980;29;20121;-79
2021/12/29 06:44:54;;;;;;;47.08;25.52;;;;;;;1.64;100.00;100133.03;4792388;29;20118;-78
2021/12/29 06:47:19;;;;;;;47.17;25.40;;;;;;;1.53;100.00;100112.13;4812935;29;20046;-78
2021/12/29 06:49:44;;;;;;;49.55;27.20;;;;;;;1.55;100.00;100137.47;4835564;29;20033;-78
2021/12/29 06:52:10;;;;;;;43.78;25.23;;;;;;;1.31;100.00;100098.38;4797967;29;20031;-78
2021/12/29 06:54:38;;;;;;;44.28;25.60;;;;;;;1.46;100.00;100138.41;4812785;29;20065;-78
2021/12/29 06:57:04;;;;;;;51.05;27.17;;;;;;;1.49;100.00;100139.91;4795587;29;20034;-79
2021/12/29 06:59:30;;;;;;;45.92;25.67;;;;;;;1.53;100.00;100141.28;4811157;29;20117;-78
2021/12/29 07:01:56;;;;;;;55.22;27.98;;;;;;;1.47;100.00;100123.34;4789593;29;20117;-79
2021/12/29 07:04:23;;;;;;;55.88;29.67;;;;;;;1.52;100.00;100136.94;4793391;29;20465;-79
2021/12/29 07:06:50;;;;;;;45.97;25.50;;;;;;;1.36;100.00;100119.16;4787062;29;20038;-78
2021/12/29 07:09:16;;;;;;;53.10;27.65;;;;;;;1.31;100.00;100111.63;4782128;29;20031;-78
2021/12/29 07:11:41;;;;;;;58.60;30.15;;;;;;;1.49;100.00;100156.66;4807018;29;20351;-78
2021/12/29 07:14:09;;;;;;;54.25;28.05;;;;;;;1.52;100.00;100166.09;4806691;29;20043;-78
2021/12/29 07:16:35;;;;;;;70.65;36.30;;;;;;;1.54;100.00;100166.78;4809254;29;20039;-79
2021/12/29 07:19:01;;;;;;;54.13;31.50;;;;;;;1.56;100.00;100167.47;4808899;29;20457;-78
2021/12/29 07:21:26;;;;;;;54.90;30.17;;;;;;;1.50;100.00;100165.44;4793589;29;20035;-78
2021/12/29 07:23:53;;;;;;;53.88;29.75;;;;;;;1.60;100.00;100184.72;4809751;29;20030;-78
2021/12/29 07:26:20;;;;;;;55.10;29.95;;;;;;;1.60;100.00;100192.69;4779441;29;20048;-79
2021/12/29 07:28:45;;;;;;;53.10;29.60;;;;;;;1.37;100.00;100155.25;4791324;29;20042;-78
2021/12/29 07:31:10;;;;;;;54.00;31.02;;;;;;;1.56;100.00;100184.22;4793061;29;20115;-78
2021/12/29 07:33:36;;;;;;;54.75;31.20;;;;;;;1.54;100.00;100193.31;4790980;29;20432;-78
2021/12/29 07:36:01;;;;;;;55.30;31.50;;;;;;;1.58;100.00;100194.66;4806843;29;20449;-78
2021/12/29 07:38:27;;;;;;;62.40;33.15;;;;;;;1.57;100.00;100201.78;4778812;29;20053;-78
2021/12/29 07:40:52;;;;;;;50.35;29.77;;;;;;;1.54;100.00;100190.66;4811393;29;20038;-79
2021/12/29 07:43:19;;;;;;;50.50;28.77;;;;;;;1.60;100.00;100205.94;4811756;29;20030;-78
2021/12/29 07:45:44;;;;;;;57.60;30.42;;;;;;;1.59;100.00;100212.22;4808806;29;20023;-78
2021/12/29 07:48:10;;;;;;;56.10;29.27;;;;;;;1.56;100.00;100223.16;4777096;29;20103;-79
2021/12/29 07:50:36;;;;;;;64.22;33.00;;;;;;;1.34;100.00;100187.38;4770925;29;20027;-78
2021/12/29 07:53:03;;;;;;;68.93;33.60;;;;;;;1.50;100.00;100221.13;4808829;29;20113;-79
2021/12/29 07:55:29;;;;;;;57.78;27.80;;;;;;;1.48;100.00;100220.44;4806838;29;20055;-79
2021/12/29 07:57:55;;;;;;;75.43;31.02;;;;;;;1.42;100.00;100221.88;4796531;29;20047;-79
2021/12/29 08:00:20;;;;;;;78.10;31.98;;;;;;;1.33;100.00;100213.06;4799383;29;20035;-79
2021/12/29 08:02:47;;;;;;;67.82;30.80;;;;;;;1.37;100.00;100230.31;4808226;29;20087;-79
2021/12/29 08:05:13;;;;;;;42.55;24.85;;;;;;;1.32;100.00;100214.00;4808415;29;20035;-79
2021/12/29 08:07:39;;;;;;;54.30;28.35;;;;;;;1.39;100.00;100227.47;4795760;29;20031;-79
2021/12/29 08:10:05;;;;;;;56.53;27.48;;;;;;;1.23;100.00;100200.88;4792925;29;20362;-78
2021/12/29 08:12:31;;;;;;;47.78;26.20;;;;;;;1.48;100.00;100231.03;4814749;29;20033;-78
2021/12/29 08:14:56;;;;;;;49.47;27.02;;;;;;;1.21;100.00;100182.47;4805889;29;20126;-79
2021/12/29 08:17:22;;;;;;;50.42;26.40;;;;;;;1.36;100.00;100198.66;4804247;29;20065;-79
2021/12/29 08:19:47;;;;;;;53.05;27.67;;;;;;;1.56;100.00;100226.66;4780494;29;20049;-78
2021/12/29 08:22:12;;;;;;;51.75;25.40;;;;;;;1.59;100.00;100226.34;4815364;29;20027;-79
2021/12/29 08:24:38;;;;;;;52.20;26.85;;;;;;;1.63;100.00;100237.47;4806679;29;20385;-80
2021/12/29 08:27:04;;;;;;;51.53;26.42;;;;;;;1.65;100.00;100231.00;4806801;29;20037;-79
2021/12/29 08:29:30;;;;;;;43.55;25.88;;;;;;;1.63;100.00;100225.03;4787723;29;20034;-78
2021/12/29 08:31:57;;;;;;;55.03;27.00;;;;;;;1.65;100.00;100225.69;4805955;29;20042;-78
2021/12/29 08:34:26;;;;;;;65.07;29.02;;;;;;;1.52;100.00;100224.44;4811242;29;20038;-78
2021/12/29 08:36:52;;;;;;;59.92;28.13;;;;;;;1.38;100.00;100201.97;4805823;29;20045;-79
2021/12/29 08:39:20;;;;;;;55.88;28.38;;;;;;;1.57;100.00;100230.94;4806768;29;20468;-79
2021/12/29 08:41:46;;;;;;;53.08;27.17;;;;;;;1.58;100.00;100235.25;4802919;29;20039;-78
2021/12/29 08:44:12;;;;;;;58.95;28.52;;;;;;;1.58;100.00;100231.78;4810414;29;20125;-79
2021/12/29 08:46:37;;;;;;;51.90;27.17;;;;;;;1.67;100.00;100249.41;4810345;29;20027;-79
2021/12/29 08:49:04;;;;;;;53.42;27.80;;;;;;;1.71;100.00;100248.13;4816667;29;20051;-79
2021/12/29 08:51:29;;;;;;;51.55;28.08;;;;;;;1.57;100.00;100225.66;4809656;29;20031;-79
2021/12/29 08:53:56;;;;;;;48.92;27.25;;;;;;;1.69;100.00;100246.59;4813758;29;20043;-79
2021/12/29 08:56:22;;;;;;;47.90;26.77;;;;;;;1.44;100.00;100204.00;4820594;29;20031;-79
2021/12/29 08:58:47;;;;;;;48.97;28.00;;;;;;;1.68;100.00;100235.16;4793353;29;20022;-78
2021/12/29 09:01:13;;;;;;;49.90;27.33;;;;;;;1.65;100.00;100224.84;4804111;29;20424;-79
2021/12/29 09:03:40;;;;;;;65.80;29.92;;;;;;;1.63;100.00;100213.59;4807603;29;20544;-78
2021/12/29 09:06:05;;;;;;;55.95;28.63;;;;;;;1.77;100.00;100234.22;4786261;29;20027;-78
2021/12/29 09:08:30;;;;;;;44.22;25.58;;;;;;;1.60;100.00;100205.94;4808630;29;20117;-80
2021/12/29 09:10:56;;;;;;;57.88;30.08;;;;;;;1.79;100.00;100242.88;4798229;29;20031;-80
2021/12/29 09:13:21;;;;;;;49.35;27.52;;;;;;;1.75;100.00;100238.84;4808387;29;20062;-80
2021/12/29 09:15:49;;;;;;;55.08;28.67;;;;;;;1.69;100.00;100231.53;4805094;29;20419;-79
2021/12/29 09:18:15;;;;;;;46.10;26.13;;;;;;;1.71;100.00;100234.84;4817539;29;20062;-78
2021/12/29 09:20:45;;;;;;;45.13;25.52;;;;;;;1.71;100.00;100224.25;4811741;29;20018;-79
2021/12/29 09:23:13;;;;;;;41.63;24.08;;;;;;;1.70;100.00;100225.25;4794169;29;20042;-79
2021/12/29 09:25:40;;;;;;;50.55;25.80;;;;;;;1.81;100.00;100245.34;4782292;29;20125;-78
2021/12/29 09:28:08;;;;;;;67.00;29.42;;;;;;;1.81;100.00;100250.66;4807020;29;20034;-79
2021/12/29 09:30:35;;;;;;;51.17;26.42;;;;;;;1.81;100.00;100250.66;4791536;29;20091;-79
2021/12/29 09:33:01;;;;;;;67.20;29.17;;;;;;;1.77;100.00;100258.09;4794536;29;20057;-78
2021/12/29 09:35:28;;;;;;;43.85;24.63;;;;;;;1.82;100.00;100258.47;4794825;29;20114;-78
2021/12/29 09:37:55;;;;;;;40.50;23.63;;;;;;;1.84;100.00;100256.50;4812160;29;20368;-79
2021/12/29 09:40:22;;;;;;;44.38;24.85;;;;;;;1.87;100.00;100247.38;4795947;29;20035;-79
2021/12/29 09:42:50;;;;;;;40.83;24.35;;;;;;;1.93;100.00;100252.06;4822221;29;20087;-79
2021/12/29 09:45:16;;;;;;;46.90;25.77;;;;;;;1.81;100.00;100230.28;4817790;29;20050;-79
2021/12/29 09:47:42;;;;;;;38.63;23.58;;;;;;;1.87;100.00;100236.78;4797179;29;20072;-79
2021/12/29 09:50:10;;;;;;;44.20;25.30;;;;;;;1.96;100.00;100235.03;4813496;29;20031;-79
2021/12/29 09:52:36;;;;;;;43.92;25.73;;;;;;;2.01;100.00;100241.50;4814572;29;20038;-79
2021/12/29 09:55:09;;;;;;;56.15;29.60;;;;;;;1.82;100.00;100215.19;4785455;29;20167;-80
2021/12/29 09:57:36;;;;;;;50.40;29.08;;;;;;;1.89;100.00;100229.50;4809882;29;20102;-79
2021/12/29 10:00:07;;;;;;;48.80;28.20;;;;;;;1.84;100.00;100223.81;4792127;29;20035;-78
2021/12/29 10:02:32;;;;;;;50.63;28.23;;;;;;;1.96;100.00;100240.31;4804696;29;20057;-78
2021/12/29 10:04:59;;;;;;;52.40;31.05;;;;;;;1.94;100.00;100244.94;4810857;29;20457;-79
2021/12/29 10:07:26;;;;;;;58.28;31.65;;;;;;;1.56;100.00;100184.22;4775757;29;21340;-78
2021/12/29 10:09:53;;;;;;;51.60;29.42;;;;;;;1.85;100.00;100236.09;4791478;29;20452;-77
2021/12/29 10:12:21;;;;;;;51.10;29.63;;;;;;;2.00;100.00;100261.06;4807748;29;20461;-79
2021/12/29 10:14:59;;;;;;;55.38;30.60;;;;;;;1.98;100.00;100270.16;4809538;29;20034;-79
2021/12/29 10:17:27;;;;;;;48.03;28.17;;;;;;;1.94;100.00;100276.78;4809792;29;20026;-79
2021/12/29 10:20:12;;;;;;;46.25;28.00;;;;;;;1.88;100.00;100268.44;4797268;29;20030;-78
2021/12/29 10:22:38;;;;;;;47.53;28.27;;;;;;;1.88;100.00;100273.75;4812816;29;20105;-79
2021/12/29 10:25:11;;;;;;;59.85;29.98;;;;;;;1.83;100.00;100273.41;4793420;29;20051;-78
2021/12/29 10:27:40;;;;;;;61.08;32.95;;;;;;;1.78;100.00;100272.19;4813891;29;20042;-78
2021/12/29 10:30:18;;;;;;;44.38;26.90;;;;;;;1.82;100.00;100266.44;4807614;29;20037;-79
2021/12/29 10:32:44;;;;;;;42.15;25.63;;;;;;;1.90;100.00;100276.25;4811398;29;20087;-79
2021/12/29 10:35:23;;;;;;;42.95;24.38;;;;;;;1.98;100.00;100264.84;4812311;29;20057;-78
2021/12/29 10:37:50;;;;;;;41.92;24.88;;;;;;;2.03;100.00;100257.28;4811310;29;20098;-78
2021/12/29 10:40:29;;;;;;;42.90;24.90;;;;;;;1.97;100.00;100242.81;4788150;29;20361;-79
2021/12/29 10:42:58;;;;;;;42.70;25.20;;;;;;;2.08;100.00;100257.63;4814368;29;20046;-79
2021/12/29 10:45:36;;;;;;;42.55;25.77;;;;;;;2.09;100.00;100248.69;4811942;29;20069;-79
2021/12/29 10:48:15;;;;;;;45.13;26.63;;;;;;;2.10;100.00;100250.34;4811814;29;20464;-78
2021/12/29 10:50:40;;;;;;;42.60;23.00;;;;;;;2.10;100.00;100250.34;4804251;29;20024;-81
2021/12/29 10:53:07;;;;;;;35.67;23.42;;;;;;;2.13;100.00;100265.13;4798992;29;20090;-83
2021/12/29 10:55:35;;;;;;;42.67;26.23;;;;;;;2.13;100.00;100268.59;4812781;29;20011;-80
2021/12/29 10:58:01;;;;;;;41.55;24.52;;;;;;;2.14;100.00;100274.75;4807223;29;20536;-80
2021/12/29 11:00:26;;;;;;;34.13;22.80;;;;;;;2.14;100.00;100277.41;4819415;29;20042;-81
2021/12/29 11:02:52;;;;;;;38.75;24.50;;;;;;;1.93;100.00;100244.13;4829576;29;20060;-80
2021/12/29 11:05:18;;;;;;;37.28;23.52;;;;;;;2.16;100.00;100278.91;4831331;29;20062;-81
2021/12/29 11:07:43;;;;;;;40.15;23.67;;;;;;;2.16;100.00;100284.22;4807855;29;20063;-81
2021/12/29 11:10:11;;;;;;;40.45;23.77;;;;;;;2.11;100.00;100279.38;4823638;29;20035;-79
2021/12/29 11:12:47;;;;;;;38.55;24.00;;;;;;;2.16;100.00;100292.19;4814799;29;20068;-80
2021/12/29 11:15:23;;;;;;;40.17;24.27;;;;;;;2.16;100.00;100289.53;4808737;29;20103;-80
2021/12/29 11:17:49;;;;;;;46.40;26.42;;;;;;;2.17;100.00;100288.53;4809553;29;20042;-80
2021/12/29 11:20:21;;;;;;;45.70;27.83;;;;;;;2.18;100.00;100286.69;4814077;29;20038;-81
2021/12/29 11:22:46;;;;;;;57.88;34.33;;;;;;;2.13;100.00;100281.88;4810329;29;20034;-79
2021/12/29 11:25:12;;;;;;;59.45;35.72;;;;;;;2.18;100.00;100292.00;4807938;29;20102;-80
2021/12/29 11:27:38;;;;;;;52.10;31.83;;;;;;;0.42;100.00;100003.25;4830846;24;20050;-79
2021/12/29 11:30:12;;;;;;;53.72;31.70;;;;;;;2.01;100.00;100277.81;4843805;29;20030;-80
2021/12/29 11:32:43;;;;;;;46.75;29.60;;;;;;;2.19;100.00;100297.19;4843646;29;20030;-79
2021/12/29 11:35:20;;;;;;;55.78;30.73;;;;;;;1.98;100.00;100264.84;4847746;29;20026;-80
2021/12/29 11:37:49;;;;;;;50.58;28.23;;;;;;;2.03;100.00;100281.97;4834499;29;20013;-81
2021/12/29 11:40:26;;;;;;;56.92;29.85;;;;;;;1.95;100.00;100271.31;4863022;29;20029;-81
2021/12/29 11:42:53;;;;;;;49.47;29.30;;;;;;;1.97;100.00;100290.56;4858135;29;20033;-81
2021/12/29 11:45:20;;;;;;;54.00;31.17;;;;;;;1.83;100.00;100291.97;4842527;29;20030;-82
2021/12/29 11:47:46;;;;;;;53.13;27.98;;;;;;;1.79;100.00;100301.25;4857867;29;20026;-83
2021/12/29 11:50:21;;;;;;;50.13;26.30;;;;;;;1.83;100.00;100307.06;4860944;29;20046;-82
2021/12/29 11:53:07;;;;;;;46.50;26.95;;;;;;;1.86;100.00;100294.31;4859004;29;20018;-81
2021/12/29 11:55:41;;;;;;;42.13;26.00;;;;;;;1.83;100.00;100284.00;4826980;29;20033;-79
2021/12/29 11:58:23;;;;;;;43.85;25.73;;;;;;;1.40;100.00;100231.81;4833514;29;20041;-81
2021/12/29 12:01:06;;;;;;;44.55;25.70;;;;;;;1.66;100.00;100287.53;4856872;29;20034;-81
2021/12/29 12:03:56;;;;;;;49.03;26.85;;;;;;;1.85;100.00;100305.06;4839740;29;20025;-81
2021/12/29 12:06:29;;;;;;;41.17;24.00;;;;;;;1.86;100.00;100302.28;4840945;29;20699;-81
2021/12/29 12:09:06;;;;;;;42.70;24.60;;;;;;;1.90;100.00;100305.44;4855656;29;20082;-81
2021/12/29 12:11:32;;;;;;;43.33;25.00;;;;;;;1.85;100.00;100297.09;4858157;29;20025;-82
2021/12/29 12:13:58;;;;;;;45.35;25.15;;;;;;;1.55;100.00;100240.03;4830696;29;20156;-79
2021/12/29 12:16:26;;;;;;;41.85;25.05;;;;;;;1.91;100.00;100298.31;4821146;29;20545;-81
2021/12/29 12:18:55;;;;;;;41.38;23.65;;;;;;;1.72;100.00;100265.69;4843801;29;20026;-82
2021/12/29 12:21:20;;;;;;;42.20;25.27;;;;;;;1.95;100.00;100310.28;4848475;29;20059;-81
2021/12/29 12:23:45;;;;;;;39.05;25.33;;;;;;;1.81;100.00;100290.47;4855124;29;20034;-81
2021/12/29 12:26:11;;;;;;;44.88;26.08;;;;;;;1.85;100.00;100290.00;4827394;29;20033;-81
2021/12/29 12:28:48;;;;;;;46.35;26.75;;;;;;;1.91;100.00;100296.50;4847514;29;20125;-80
2021/12/29 12:31:40;;;;;;;49.38;29.67;;;;;;;2.01;100.00;100313.13;4821076;29;20034;-80
2021/12/29 12:34:12;;;;;;;42.53;23.95;;;;;;;2.03;100.00;100320.97;4837771;29;20045;-79
2021/12/29 12:36:39;;;;;;;39.00;24.77;;;;;;;1.97;100.00;100309.16;4832679;29;20014;-83
2021/12/29 12:39:19;;;;;;;38.47;24.80;;;;;;;1.88;100.00;100326.81;4852008;29;20118;-81
2021/12/29 12:41:48;;;;;;;42.97;25.73;;;;;;;1.90;100.00;100329.31;4853770;29;20372;-80
2021/12/29 12:44:17;;;;;;;44.53;26.10;;;;;;;1.83;100.00;100318.50;4845323;29;20091;-81
2021/12/29 12:46:48;;;;;;;49.28;28.63;;;;;;;1.79;100.00;100311.00;4864035;29;20030;-83
2021/12/29 12:49:18;;;;;;;41.20;26.40;;;;;;;1.90;100.00;100323.19;4862729;29;20045;-81
2021/12/29 12:51:54;;;;;;;52.88;31.33;;;;;;;1.94;100.00;100319.22;4862613;29;20013;-82
2021/12/29 12:54:22;;;;;;;61.80;37.65;;;;;;;1.91;100.00;100303.63;4856106;29;20014;-81
2021/12/29 12:56:48;;;;;;;52.30;27.92;;;;;;;2.04;100.00;100327.94;4842573;29;20463;-81
2021/12/29 12:59:15;;;;;;;47.95;27.27;;;;;;;1.93;100.00;100326.38;4865808;29;20049;-81
2021/12/29 13:01:46;;;;;;;48.40;27.13;;;;;;;1.82;100.00;100322.16;4858893;29;20023;-81
2021/12/29 13:04:15;;;;;;;63.15;32.03;;;;;;;1.77;100.00;100320.94;4844244;29;20030;-81
2021/12/29 13:06:43;;;;;;;136.07;37.80;;;;;;;1.63;100.00;100314.38;4847174;29;20026;-81
2021/12/29 13:09:09;;;;;;;61.60;29.25;;;;;;;1.61;100.00;100309.19;4837110;29;20356;-80
2021/12/29 13:11:36;;;;;;;57.50;29.65;;;;;;;1.49;100.00;100283.06;4849839;29;20029;-80
2021/12/29 13:14:04;;;;;;;49.97;26.98;;;;;;;1.54;100.00;100292.25;4835158;29;20062;-81
2021/12/29 13:16:31;;;;;;;45.97;25.60;;;;;;;1.59;100.00;100307.69;4850952;29;20041;-80
2021/12/29 13:18:58;;;;;;;46.05;26.88;;;;;;;1.64;100.00;100303.59;4819423;29;20046;-81
2021/12/29 13:21:30;;;;;;;37.65;23.27;;;;;;;1.68;100.00;100305.94;4858648;29;20047;-83
2021/12/29 13:32:54;;;;;;;80.95;40.83;;;;;;;1.74;100.00;100308.81;5662212;24;20141;31
2021/12/29 13:35:34;;;;;;;118.82;50.28;;;;;;;0.72;100.00;100152.09;5655747;24;20761;31
2021/12/29 13:38:03;;;;;;;74.63;38.65;;;;;;;0.18;100.00;100080.59;4740733;30;20032;-84
2021/12/29 13:40:34;;;;;;;68.32;36.90;;;;;;;-0.02;100.00;100054.28;4755056;30;20025;-84
2021/12/29 13:42:59;;;;;;;66.50;34.92;;;;;;;0.32;100.00;100108.34;4758398;30;20019;-84
2021/12/29 14:14:01;;;;;;;60.78;32.40;;;;;;;1.87;100.00;100333.13;4793675;29;20055;-83
2021/12/29 14:16:27;;;;;;;53.63;30.92;;;;;;;1.83;100.00;100342.38;4810006;29;20035;-82
2021/12/29 14:18:56;;;;;;;54.45;31.35;;;;;;;1.85;100.00;100348.38;4780722;29;20019;-80
2021/12/29 14:21:37;;;;;;;53.55;31.20;;;;;;;1.84;100.00;100345.84;4810219;29;20035;-82
2021/12/29 14:24:10;;;;;;;74.00;35.55;;;;;;;1.70;100.00;100333.97;4810893;29;20031;-82
2021/12/29 14:26:41;;;;;;;59.60;32.30;;;;;;;1.87;100.00;100361.47;4810552;29;20063;-82
2021/12/29 14:31:53;;;;;;;53.03;30.67;;;;;;;1.84;100.00;100362.59;5044504;24;20038;-82
2021/12/29 14:42:13;;;;;;;66.57;32.70;;;;;;;0.04;100.00;100092.53;5138868;24;20054;-84
2021/12/29 14:44:46;;;;;;;65.30;31.85;;;;;;;0.83;100.00;100197.72;4813260;29;20438;-83
2021/12/29 15:02:45;;;;;;;73.53;33.15;;;;;;;0.22;100.00;100145.44;5204567;24;20046;-81
2021/12/29 15:05:14;;;;;;;81.78;35.40;;;;;;;1.68;100.00;100369.59;4849431;29;20030;-82
2021/12/29 15:10:31;;;;;;;79.95;34.40;;;;;;;0.99;100.00;100267.72;5330265;24;20075;-80
2021/12/29 15:12:57;;;;;;;85.97;36.15;;;;;;;-0.16;100.00;100093.63;4830457;29;20015;-81
2021/12/29 15:15:29;;;;;;;90.43;35.83;;;;;;;1.64;100.00;100377.03;4814184;29;20015;-81
2021/12/29 15:17:56;;;;;;;73.60;35.05;;;;;;;1.65;100.00;100370.72;4847131;29;20011;-82
2021/12/29 15:20:22;;;;;;;75.78;35.05;;;;;;;1.64;100.00;100371.72;4835002;29;20035;-82
2021/12/29 15:22:48;;;;;;;83.53;35.15;;;;;;;1.41;100.00;100344.81;4834357;29;20047;-82
2021/12/29 15:25:22;;;;;;;75.20;33.92;;;;;;;1.49;100.00;100359.97;4836047;29;20019;-81
2021/12/29 15:27:50;;;;;;;84.43;35.55;;;;;;;1.67;100.00;100389.16;4824463;29;20026;-81
2021/12/29 15:30:18;;;;;;;75.93;33.88;;;;;;;1.65;100.00;100384.81;4832036;29;20018;-81
2021/12/29 15:32:44;;;;;;;68.13;31.70;;;;;;;1.68;100.00;100388.16;4816427;29;20048;-81
2021/12/29 15:35:10;;;;;;;74.63;32.45;;;;;;;1.58;100.00;100373.16;4838701;29;20053;-82
2021/12/29 15:45:24;;;;;;;72.95;31.88;;;;;;;0.14;100.00;100148.03;5231387;24;20042;-81
2021/12/29 15:55:37;;;;;;;66.28;30.98;;;;;;;0.70;100.00;100242.28;4923758;24;20046;-81
2021/12/29 16:03:14;;;;;;;79.22;32.15;;;;;;;1.02;100.00;100312.44;5040790;24;20050;-83
2021/12/29 16:11:31;;;;;;;79.13;34.00;;;;;;;0.17;100.00;100168.91;4946084;24;20061;-83
2021/12/29 16:13:57;;;;;;;78.63;34.40;;;;;;;0.18;100.00;100170.56;4849694;29;20069;-83
2021/12/29 16:34:29;;;;;;;88.43;39.15;;;;;;;1.76;100.00;100362.53;5170443;24;20066;-79
2021/12/29 16:39:29;;;;;;;82.00;36.05;;;;;;;1.00;100.00;100256.16;5012425;24;20053;-85
2021/12/29 16:52:17;;;;;;;79.15;35.90;;;;;;;0.10;100.00;100101.66;5746342;24;20322;-79
2021/12/29 17:33:32;;;;;;;71.70;35.13;;;;;;;1.83;100.00;100329.09;4880482;24;20058;-81
2021/12/29 17:35:59;;;;;;;77.80;35.83;;;;;;;1.75;100.00;100310.47;4793421;29;20106;-81
2021/12/29 17:38:25;;;;;;;80.00;35.53;;;;;;;1.82;100.00;100314.19;4828474;29;20042;-83
2021/12/29 17:40:51;;;;;;;82.35;38.58;;;;;;;1.84;100.00;100298.94;4832863;29;20034;-83
2021/12/29 17:48:20;;;;;;;74.20;37.45;;;;;;;0.22;100.00;100055.50;4871603;24;20128;-81
2021/12/29 17:50:53;;;;;;;77.88;38.10;;;;;;;1.84;100.00;100304.25;4961620;24;20059;-82
2021/12/29 17:53:18;;;;;;;74.25;37.08;;;;;;;1.78;100.00;100278.31;4809711;29;20048;-84
2021/12/29 17:55:50;;;;;;;77.50;36.90;;;;;;;1.58;100.00;100263.59;4813948;29;20035;-83
2021/12/29 17:58:17;;;;;;;68.05;35.70;;;;;;;1.82;100.00;100305.38;4812239;29;20054;-83
2021/12/29 18:00:44;;;;;;;75.70;36.13;;;;;;;1.81;100.00;100304.53;4793918;29;20046;-83
2021/12/29 18:03:09;;;;;;;74.72;36.30;;;;;;;1.81;100.00;100309.84;4799928;29;20126;-83
2021/12/29 18:05:35;;;;;;;69.25;35.17;;;;;;;1.26;100.00;100251.75;4809000;29;20034;-82
2021/12/29 18:08:00;;;;;;;84.03;37.72;;;;;;;1.32;100.00;100239.69;4818315;29;20045;-83
2021/12/29 18:10:26;;;;;;;73.75;35.53;;;;;;;0.73;100.00;100159.03;4827751;29;20047;-83
2021/12/29 18:12:53;;;;;;;74.63;34.45;;;;;;;1.58;100.00;100279.50;4806680;29;20035;-84
2021/12/29 18:20:29;;;;;;;77.88;35.65;;;;;;;0.82;100.00;100163.44;5352567;24;20076;-84
2021/12/29 18:25:30;;;;;;;67.22;36.00;;;;;;;0.16;100.00;100062.22;5614331;24;20054;-83
2021/12/29 18:40:44;;;;;;;51.08;29.67;;;;;;;1.48;100.00;100284.06;5764288;24;20023;-82
2021/12/29 19:01:18;;;;;;;58.35;31.05;;;;;;;0.46;100.00;100127.22;5264932;24;20059;-83
2021/12/29 19:06:19;;;;;;;53.78;29.92;;;;;;;0.58;100.00;100162.22;5112255;24;20592;-81
2021/12/29 19:08:44;;;;;;;60.10;30.67;;;;;;;0.63;100.00;100159.09;4850896;29;20094;-83
2021/12/29 19:11:11;;;;;;;56.00;30.73;;;;;;;1.17;100.00;100266.75;4866709;29;20037;-83
2021/12/29 19:13:38;;;;;;;55.58;29.67;;;;;;;0.73;100.00;100214.63;4868652;29;20020;-82
2021/12/29 19:16:04;;;;;;;55.13;30.15;;;;;;;0.90;100.00;100222.63;5092545;24;20105;-80
2021/12/29 19:18:30;;;;;;;56.17;30.23;;;;;;;0.74;100.00;100206.56;4808501;29;20039;-82
2021/12/29 19:20:56;;;;;;;57.90;31.80;;;;;;;0.16;100.00;100099.25;4823780;29;20033;-82
2021/12/29 19:23:22;;;;;;;57.75;31.15;;;;;;;0.50;100.00;100154.22;4843101;29;20026;-83
2021/12/29 19:25:48;;;;;;;60.03;32.22;;;;;;;0.12;100.00;100095.25;4831254;29;20113;-83
2021/12/29 19:28:18;;;;;;;60.10;31.65;;;;;;;0.38;100.00;100153.56;4802214;29;20026;-81
2021/12/29 19:30:48;;;;;;;62.50;30.75;;;;;;;0.03;100.00;100090.00;4831970;29;20046;-81
2021/12/29 19:33:15;;;;;;;58.00;31.17;;;;;;;-0.06;100.00;100078.53;4818743;29;20086;-82
2021/12/29 19:40:54;;;;;;;61.25;32.88;;;;;;;1.65;100.00;100355.63;5391251;24;20047;-83
2021/12/29 19:48:31;;;;;;;62.78;32.50;;;;;;;1.73;100.00;100333.69;5546510;24;20046;-82
2021/12/29 19:50:57;;;;;;;62.63;32.65;;;;;;;1.85;100.00;100347.50;4861574;29;20018;-83
2021/12/29 19:53:25;;;;;;;59.22;30.80;;;;;;;1.78;100.00;100331.38;4864721;29;20020;-81
2021/12/29 19:55:51;;;;;;;61.65;34.40;;;;;;;1.86;100.00;100350.03;4868083;29;20013;-83